Time;durP1;ratioP1;P1;durP2;ratioP2;P2;SDS_P1;SDS_P2;PMS_P1;PMS_P2;Temp;Humidity;BMP_temperature;BMP_pressure;BME280_temperature;BME280_humidity;BME280_pressure;Samples;Min_cycle;Max_cycle;Signal;HPM_P1;HPM_P2
2022/05/31 00:02:25;;;;;;;2.10;1.80;;;9.20;99.90;;;;;;5052213;28;20103;-81
2022/05/31 00:04:51;;;;;;;3.35;1.38;;;9.20;99.90;;;;;;5045639;28;20088;-81
2022/05/31 00:07:18;;;;;;;2.03;1.55;;;9.20;99.90;;;;;;5051825;28;20032;-81
2022/05/31 00:09:44;;;;;;;1.85;1.75;;;9.20;99.90;;;;;;5053416;28;20111;-80
2022/05/31 00:12:10;;;;;;;4.20;2.20;;;9.30;99.90;;;;;;5052606;28;20025;-80
2022/05/31 00:14:37;;;;;;;3.05;1.92;;;9.30;99.90;;;;;;5052821;28;20021;-80
2022/05/31 00:17:03;;;;;;;1.58;1.45;;;9.30;99.90;;;;;;5052336;28;20514;-80
2022/05/31 00:19:29;;;;;;;4.22;2.20;;;9.40;99.90;;;;;;5052579;28;20398;-80
2022/05/31 00:22:12;;;;;;;1.92;1.70;;;9.40;99.90;;;;;;5051895;28;20021;-80
2022/05/31 00:24:41;;;;;;;2.00;1.70;;;9.40;99.90;;;;;;5052519;28;20446;-80
2022/05/31 00:27:08;;;;;;;1.70;1.60;;;9.40;99.90;;;;;;5050667;28;20032;-80
2022/05/31 00:29:34;;;;;;;3.97;1.73;;;9.40;99.90;;;;;;5051092;28;20044;-80
2022/05/31 00:32:03;;;;;;;5.88;2.47;;;9.30;99.90;;;;;;5069693;22;20060;-77
2022/05/31 00:34:31;;;;;;;1.63;1.52;;;9.40;99.90;;;;;;5050190;28;20068;-77
2022/05/31 00:36:57;;;;;;;3.22;1.40;;;9.40;99.90;;;;;;5052649;28;20020;-77
2022/05/31 00:39:23;;;;;;;2.95;1.83;;;9.50;99.90;;;;;;5045467;28;20028;-77
2022/05/31 00:42:07;;;;;;;2.05;1.83;;;9.50;99.90;;;;;;5052133;28;20044;-77
2022/05/31 00:44:34;;;;;;;4.25;1.90;;;9.50;99.90;;;;;;5051761;28;20124;-77
2022/05/31 00:47:13;;;;;;;1.75;1.65;;;9.50;99.90;;;;;;5050079;28;20021;-77
2022/05/31 00:49:40;;;;;;;1.40;1.30;;;9.50;99.90;;;;;;5051753;28;20033;-77
2022/05/31 00:52:33;;;;;;;1.45;1.35;;;9.50;99.90;;;;;;5044821;28;20060;-77
2022/05/31 00:55:00;;;;;;;;;;;9.40;99.90;;;;;;5045960;28;20021;-77
2022/05/31 00:57:27;;;;;;;2.00;1.45;;;9.40;99.90;;;;;;5051670;28;19912;-77
2022/05/31 00:59:58;;;;;;;2.50;1.60;;;9.40;99.90;;;;;;5050220;28;20028;-78
2022/05/31 01:02:25;;;;;;;1.60;1.50;;;9.30;99.90;;;;;;5051369;28;20017;-77
2022/05/31 01:04:53;;;;;;;1.98;1.50;;;9.30;99.90;;;;;;5051388;28;20025;-77
2022/05/31 01:07:19;;;;;;;2.20;2.00;;;9.20;99.90;;;;;;5051385;28;20013;-77
2022/05/31 01:09:45;;;;;;;4.20;1.85;;;9.20;99.90;;;;;;5051655;28;20352;-78
2022/05/31 01:12:13;;;;;;;2.05;1.40;;;9.20;99.90;;;;;;5051514;28;20067;-77
2022/05/31 01:14:41;;;;;;;1.85;1.50;;;9.20;99.90;;;;;;5049477;28;20033;-78
2022/05/31 01:17:12;;;;;;;1.80;1.45;;;9.10;99.90;;;;;;5051257;28;20021;-77
2022/05/31 01:19:56;;;;;;;4.57;1.70;;;9.10;99.90;;;;;;5051043;28;20036;-77
2022/05/31 01:22:33;;;;;;;2.05;1.42;;;9.00;99.90;;;;;;5046087;28;20028;-77
2022/05/31 01:25:18;;;;;;;3.13;1.65;;;9.00;99.90;;;;;;5044568;28;20026;-77
2022/05/31 01:27:53;;;;;;;2.15;1.33;;;9.00;99.90;;;;;;5044986;28;20021;-77
2022/05/31 01:33:18;;;;;;;2.65;1.58;;;8.90;99.90;;;;;;5047894;28;20048;-80
2022/05/31 01:35:44;;;;;;;2.28;1.98;;;8.80;99.90;;;;;;5051230;28;20032;-80
2022/05/31 01:38:19;;;;;;;2.00;1.65;;;8.80;99.90;;;;;;5051294;28;20017;-81
2022/05/31 01:41:06;;;;;;;2.03;1.45;;;8.70;99.90;;;;;;5050914;28;20092;-81
2022/05/31 01:43:32;;;;;;;1.20;1.20;;;8.70;99.90;;;;;;5050905;28;20032;-80
2022/05/31 01:46:09;;;;;;;3.15;1.70;;;8.70;99.90;;;;;;5051117;28;20017;-80
2022/05/31 01:48:39;;;;;;;1.42;1.33;;;8.60;99.90;;;;;;5044712;28;20020;-81
2022/05/31 01:51:05;;;;;;;2.05;1.73;;;8.60;99.90;;;;;;5050404;28;20051;-81
2022/05/31 01:53:33;;;;;;;1.90;1.80;;;8.60;99.90;;;;;;5033117;28;20048;-81
2022/05/31 01:55:59;;;;;;;2.05;1.70;;;8.70;99.90;;;;;;5050966;28;20518;-81
2022/05/31 01:58:28;;;;;;;1.50;1.25;;;8.70;99.90;;;;;;5032828;28;20032;-81
2022/05/31 02:00:54;;;;;;;1.80;1.70;;;8.70;99.90;;;;;;5050360;28;20393;-81
2022/05/31 02:03:22;;;;;;;1.63;1.50;;;8.80;99.90;;;;;;5050628;28;20036;-81
2022/05/31 02:05:51;;;;;;;1.73;1.63;;;8.80;99.90;;;;;;5050180;28;20370;-81
2022/05/31 02:08:20;;;;;;;4.57;1.65;;;8.90;99.90;;;;;;5050475;28;20490;-81
2022/05/31 02:10:47;;;;;;;2.05;1.60;;;8.90;99.90;;;;;;5050264;28;20196;-81
2022/05/31 02:13:14;;;;;;;1.48;1.38;;;9.00;99.90;;;;;;5050796;28;20032;-81
2022/05/31 02:15:41;;;;;;;2.65;1.50;;;9.10;99.90;;;;;;5050544;28;20018;-81
2022/05/31 02:18:07;;;;;;;2.03;1.80;;;9.10;99.90;;;;;;5050127;28;20017;-81
2022/05/31 02:20:33;;;;;;;1.73;1.63;;;9.20;99.90;;;;;;5050639;28;20017;-81
2022/05/31 02:22:59;;;;;;;2.45;1.70;;;9.20;99.90;;;;;;5050600;28;20033;-80
2022/05/31 02:25:25;;;;;;;1.65;1.50;;;9.30;99.90;;;;;;5049941;28;20108;-81
2022/05/31 02:27:51;;;;;;;3.20;1.70;;;9.30;99.90;;;;;;5050643;28;20066;-80
2022/05/31 02:30:17;;;;;;;2.17;1.60;;;9.30;99.90;;;;;;5050317;28;20025;-81
2022/05/31 02:32:43;;;;;;;4.32;1.50;;;9.30;99.90;;;;;;5049723;28;20044;-81
2022/05/31 02:35:10;;;;;;;2.05;1.70;;;9.30;99.90;;;;;;5050041;28;20017;-80
2022/05/31 02:37:36;;;;;;;1.98;1.67;;;9.40;99.90;;;;;;5032194;28;20038;-81
2022/05/31 02:40:03;;;;;;;4.20;1.77;;;9.50;99.90;;;;;;5049847;28;20475;-81
2022/05/31 02:42:29;;;;;;;2.20;2.00;;;9.50;99.90;;;;;;5050287;28;20029;-80
2022/05/31 02:44:55;;;;;;;4.00;2.08;;;9.50;99.90;;;;;;5050255;28;20029;-81
2022/05/31 02:47:21;;;;;;;3.15;1.60;;;9.60;99.90;;;;;;5049618;28;20538;-81
2022/05/31 02:49:47;;;;;;;2.35;1.65;;;9.60;99.90;;;;;;5032376;28;20017;-80
2022/05/31 02:52:14;;;;;;;3.42;2.03;;;9.80;99.90;;;;;;5050023;28;20381;-80
2022/05/31 02:54:40;;;;;;;3.22;2.20;;;9.80;99.90;;;;;;5050183;28;20107;-80
2022/05/31 02:57:06;;;;;;;4.55;2.28;;;9.80;99.90;;;;;;5050236;28;20128;-80
2022/05/31 02:59:32;;;;;;;3.78;2.63;;;9.90;99.90;;;;;;5043533;28;20059;-80
2022/05/31 03:01:57;;;;;;;4.22;2.60;;;10.00;99.90;;;;;;5059468;22;20443;-77
2022/05/31 03:04:24;;;;;;;4.03;2.95;;;10.00;99.90;;;;;;5030387;28;20041;-77
2022/05/31 03:06:50;;;;;;;3.40;3.10;;;10.10;99.90;;;;;;5030899;28;20355;-77
2022/05/31 03:09:16;;;;;;;3.75;2.95;;;10.10;99.90;;;;;;5030640;28;20501;-76
2022/05/31 03:11:59;;;;;;;2.85;2.55;;;10.10;99.90;;;;;;5030215;28;20028;-77
2022/05/31 03:14:38;;;;;;;4.50;2.60;;;10.10;99.90;;;;;;5028014;28;20092;-76
2022/05/31 03:17:12;;;;;;;2.53;2.25;;;10.10;99.90;;;;;;5029775;28;20383;-77
2022/05/31 03:19:51;;;;;;;3.42;2.47;;;10.10;99.90;;;;;;5024075;28;20026;-79
2022/05/31 03:22:23;;;;;;;2.50;2.13;;;10.00;99.90;;;;;;5023073;28;20029;-79
2022/05/31 03:24:52;;;;;;;;;;;10.10;99.90;;;;;;5030296;28;20041;-79
2022/05/31 03:27:17;;;;;;;3.03;2.58;;;10.00;99.90;;;;;;5029700;28;20407;-79
2022/05/31 03:29:46;;;;;;;5.30;2.90;;;10.00;99.90;;;;;;5030108;28;20025;-79
2022/05/31 03:32:12;;;;;;;3.95;2.38;;;10.00;99.90;;;;;;5029437;28;20036;-78
2022/05/31 03:34:38;;;;;;;3.22;2.15;;;10.00;99.90;;;;;;5028309;28;20026;-79
2022/05/31 03:37:04;;;;;;;3.58;2.45;;;10.00;99.90;;;;;;5030963;28;20071;-78
2022/05/31 03:39:30;;;;;;;4.25;2.67;;;9.90;99.90;;;;;;5033466;28;20106;-78
2022/05/31 03:41:56;;;;;;;4.30;2.60;;;10.00;99.90;;;;;;5032721;28;20029;-78
2022/05/31 03:44:21;;;;;;;4.63;2.70;;;9.90;99.90;;;;;;5033289;28;20045;-78
2022/05/31 03:46:47;;;;;;;2.35;1.88;;;9.90;99.90;;;;;;5033080;28;20447;-78
2022/05/31 03:49:14;;;;;;;3.38;1.80;;;9.80;99.90;;;;;;5033255;28;20115;-78
2022/05/31 03:51:40;;;;;;;2.97;2.67;;;9.90;99.90;;;;;;5031498;28;20029;-79
2022/05/31 03:54:06;;;;;;;5.05;2.30;;;9.80;99.90;;;;;;5033421;28;20136;-78
2022/05/31 03:56:35;;;;;;;3.78;2.33;;;9.90;99.90;;;;;;5031645;28;20049;-78
2022/05/31 03:59:00;;;;;;;6.60;2.40;;;9.80;99.90;;;;;;5033264;28;20079;-78
2022/05/31 04:01:26;;;;;;;3.58;2.60;;;9.90;99.90;;;;;;5049441;22;20041;-77
2022/05/31 04:03:52;;;;;;;2.75;2.33;;;9.90;99.90;;;;;;5013318;28;20479;-77
2022/05/31 04:06:18;;;;;;;3.67;2.28;;;10.00;99.90;;;;;;5012168;28;20022;-77
2022/05/31 04:08:44;;;;;;;1.90;1.70;;;10.10;99.90;;;;;;5013576;28;20052;-78
2022/05/31 04:11:09;;;;;;;3.08;2.00;;;10.00;99.90;;;;;;5012096;28;20022;-78
2022/05/31 04:13:35;;;;;;;3.17;2.20;;;10.00;99.90;;;;;;5015479;28;20034;-78
2022/05/31 04:16:12;;;;;;;1.95;1.80;;;9.90;99.90;;;;;;5012968;28;20026;-78
2022/05/31 04:18:38;;;;;;;2.55;2.10;;;9.90;99.90;;;;;;5005342;28;20533;-78
2022/05/31 04:21:07;;;;;;;2.30;2.10;;;9.90;99.90;;;;;;5012851;28;20467;-78
2022/05/31 04:26:17;;;;;;;3.00;2.10;;;9.90;99.90;;;;;;5012761;28;20411;-78
2022/05/31 04:28:43;;;;;;;2.40;2.20;;;9.90;99.90;;;;;;5012875;28;20021;-78
2022/05/31 04:31:09;;;;;;;1.88;1.75;;;9.90;99.90;;;;;;5011325;28;20025;-78
2022/05/31 04:33:36;;;;;;;2.50;1.80;;;10.00;99.90;;;;;;5027383;28;20029;-77
2022/05/31 04:36:05;;;;;;;2.88;1.88;;;10.00;99.90;;;;;;5028199;28;20105;-78
2022/05/31 04:38:31;;;;;;;3.20;1.88;;;10.10;99.90;;;;;;5012398;28;20058;-78
2022/05/31 04:40:57;;;;;;;2.47;2.00;;;10.10;99.90;;;;;;5012402;28;20058;-78
2022/05/31 04:43:23;;;;;;;3.30;1.63;;;10.10;99.90;;;;;;5015871;28;20038;-78
2022/05/31 04:45:49;;;;;;;2.15;1.83;;;10.10;99.90;;;;;;5012503;28;20121;-77
2022/05/31 04:48:14;;;;;;;1.90;1.80;;;10.10;99.90;;;;;;5011958;28;20037;-77
2022/05/31 04:50:40;;;;;;;1.95;1.83;;;10.20;99.90;;;;;;5012521;28;20026;-78
2022/05/31 04:53:06;;;;;;;2.83;1.90;;;10.20;99.90;;;;;;5011015;28;20080;-78
2022/05/31 04:55:32;;;;;;;2.22;2.00;;;10.20;99.90;;;;;;5012515;28;20399;-78
2022/05/31 04:57:57;;;;;;;2.75;2.08;;;10.20;99.90;;;;;;5012215;28;20014;-78
2022/05/31 05:00:23;;;;;;;1.70;1.60;;;10.30;99.90;;;;;;5011890;28;20029;-78
2022/05/31 05:02:49;;;;;;;1.70;1.58;;;10.40;99.90;;;;;;5011471;28;20437;-78
2022/05/31 05:05:16;;;;;;;1.90;1.70;;;10.50;99.90;;;;;;5011956;28;20085;-78
2022/05/31 05:07:42;;;;;;;1.52;1.42;;;10.50;99.90;;;;;;5011904;28;20022;-78
2022/05/31 05:10:08;;;;;;;1.48;1.38;;;10.50;99.90;;;;;;5011953;28;20064;-78
2022/05/31 05:12:35;;;;;;;1.55;1.42;;;10.50;99.90;;;;;;5014121;28;20025;-78
2022/05/31 05:15:02;;;;;;;1.60;1.50;;;10.60;99.90;;;;;;5010577;28;20040;-78
2022/05/31 05:17:27;;;;;;;2.75;1.40;;;10.60;99.90;;;;;;5011820;28;20030;-78
2022/05/31 05:19:53;;;;;;;1.55;1.45;;;10.50;99.90;;;;;;5011654;28;20101;-79
2022/05/31 05:22:19;;;;;;;1.50;1.20;;;10.40;99.90;;;;;;5010395;28;20025;-79
2022/05/31 05:24:45;;;;;;;1.25;1.15;;;10.30;99.90;;;;;;5011682;28;20034;-79
2022/05/31 05:27:10;;;;;;;1.08;1.00;;;10.20;99.90;;;;;;5011761;28;20527;-78
2022/05/31 05:32:20;;;;;;;0.80;0.80;;;10.00;99.90;;;;;;5040448;22;20044;-77
2022/05/31 05:34:53;;;;;;;0.80;0.80;;;9.90;99.90;;;;;;5030633;28;20022;-78
2022/05/31 05:37:20;;;;;;;1.10;0.88;;;9.80;99.90;;;;;;5031046;28;20032;-78
2022/05/31 05:39:46;;;;;;;2.13;0.80;;;9.80;99.90;;;;;;5031516;28;20029;-78
2022/05/31 05:42:13;;;;;;;2.55;0.90;;;9.80;99.90;;;;;;5030977;28;20605;-78
2022/05/31 05:44:39;;;;;;;2.05;0.82;;;9.80;99.90;;;;;;5030833;28;20103;-78
2022/05/31 05:47:10;;;;;;;2.05;0.63;;;9.80;99.90;;;;;;5030053;28;20493;-78
2022/05/31 05:49:36;;;;;;;1.10;1.00;;;9.80;99.90;;;;;;5030497;28;20022;-78
2022/05/31 05:52:06;;;;;;;0.90;0.90;;;9.80;99.90;;;;;;5030628;28;20026;-79
2022/05/31 05:54:31;;;;;;;1.30;1.20;;;9.80;99.90;;;;;;5030813;28;20033;-79
2022/05/31 05:56:57;;;;;;;1.15;1.15;;;9.70;99.90;;;;;;5030804;28;20029;-78
2022/05/31 05:59:23;;;;;;;1.23;0.82;;;9.70;99.90;;;;;;5030003;28;20116;-79
2022/05/31 06:01:54;;;;;;;1.15;0.90;;;9.70;99.90;;;;;;5029977;28;20099;-79
2022/05/31 06:04:34;;;;;;;1.30;1.20;;;9.70;99.90;;;;;;5028768;28;20128;-79
2022/05/31 06:07:29;;;;;;;2.38;2.17;;;9.70;99.90;;;;;;5023961;28;20259;-79
2022/05/31 06:10:12;;;;;;;1.15;1.05;;;9.60;99.90;;;;;;5023953;28;20025;-79
2022/05/31 06:12:42;;;;;;;3.60;1.45;;;9.60;99.90;;;;;;5025487;28;20036;-79
2022/05/31 06:15:31;;;;;;;1.52;1.27;;;9.60;99.90;;;;;;5023619;28;20112;-78
2022/05/31 06:18:01;;;;;;;1.50;1.40;;;9.60;99.90;;;;;;5024294;28;20024;-78
2022/05/31 06:20:29;;;;;;;1.63;1.20;;;9.60;99.90;;;;;;5030505;28;20022;-79
2022/05/31 06:22:56;;;;;;;2.25;1.30;;;9.60;99.90;;;;;;5030526;28;20045;-79
2022/05/31 06:25:21;;;;;;;1.42;1.30;;;9.70;99.90;;;;;;5030584;28;20024;-79
2022/05/31 06:27:48;;;;;;;2.25;1.52;;;9.70;99.90;;;;;;5030328;28;20017;-80
2022/05/31 06:30:14;;;;;;;1.30;1.20;;;9.80;99.90;;;;;;5030190;28;20117;-79
2022/05/31 06:32:40;;;;;;;1.60;1.50;;;9.90;99.90;;;;;;5053355;22;20053;-81
2022/05/31 06:35:07;;;;;;;2.08;1.00;;;10.00;99.90;;;;;;5029221;28;20029;-80
2022/05/31 06:37:32;;;;;;;1.13;1.00;;;10.10;99.90;;;;;;5029673;28;20095;-81
2022/05/31 06:39:58;;;;;;;2.28;1.35;;;10.10;99.90;;;;;;5030982;28;20033;-81
2022/05/31 06:42:24;;;;;;;2.55;1.52;;;10.20;99.90;;;;;;5029186;28;20029;-81
2022/05/31 06:44:50;;;;;;;1.23;1.10;;;10.20;99.90;;;;;;5030173;28;20104;-80
2022/05/31 06:47:16;;;;;;;1.40;1.20;;;10.30;99.90;;;;;;5030612;28;20116;-80
2022/05/31 06:49:42;;;;;;;1.50;1.40;;;10.40;99.90;;;;;;5030578;28;20021;-80
2022/05/31 06:57:43;;;;;;;1.00;1.00;;;10.70;99.90;;;;;;5030215;28;20025;-81
2022/05/31 07:00:12;;;;;;;1.58;0.75;;;10.80;99.90;;;;;;5030331;28;20022;-80
2022/05/31 07:02:37;;;;;;;1.05;0.90;;;10.90;99.90;;;;;;5030141;28;20080;-80
2022/05/31 07:05:03;;;;;;;0.80;0.75;;;11.00;99.90;;;;;;5030091;28;20026;-81
2022/05/31 07:07:29;;;;;;;1.00;0.90;;;11.10;99.90;;;;;;5029782;28;20024;-80
2022/05/31 07:09:55;;;;;;;0.90;0.90;;;11.20;99.90;;;;;;5030474;28;20021;-80
2022/05/31 07:12:21;;;;;;;0.80;0.80;;;11.40;99.90;;;;;;5032471;28;20376;-81
2022/05/31 07:14:47;;;;;;;2.13;1.20;;;11.60;99.90;;;;;;5033721;28;20030;-81
2022/05/31 07:17:13;;;;;;;8.32;1.42;;;11.70;99.90;;;;;;5033682;28;20013;-81
2022/05/31 07:19:39;;;;;;;1.10;1.00;;;11.90;99.90;;;;;;5033419;28;20084;-81
2022/05/31 07:22:05;;;;;;;1.48;1.10;;;12.10;99.90;;;;;;5033292;28;20025;-81
2022/05/31 07:24:31;;;;;;;1.55;1.20;;;12.30;99.90;;;;;;5033670;28;20120;-81
2022/05/31 07:26:57;;;;;;;1.30;1.15;;;12.30;99.90;;;;;;5033285;28;20507;-81
2022/05/31 07:29:24;;;;;;;1.75;0.75;;;12.40;99.90;;;;;;5033351;28;20053;-81
2022/05/31 07:31:49;;;;;;;1.27;1.00;;;12.70;99.90;;;;;;5047606;22;20060;-80
2022/05/31 07:34:16;;;;;;;1.67;0.90;;;12.80;99.90;;;;;;5014660;28;20467;-80
2022/05/31 07:36:43;;;;;;;0.80;0.80;;;12.70;99.90;;;;;;5014118;28;20030;-79
2022/05/31 07:39:11;;;;;;;2.72;0.85;;;12.80;99.90;;;;;;5012780;28;20163;-79
2022/05/31 07:41:37;;;;;;;3.15;0.80;;;13.10;99.90;;;;;;5011138;28;20557;-80
2022/05/31 07:44:03;;;;;;;2.38;1.17;;;13.20;99.90;;;;;;5013229;28;20041;-80
2022/05/31 07:46:29;;;;;;;1.60;0.80;;;13.20;99.90;;;;;;5013398;28;20029;-79
2022/05/31 07:48:57;;;;;;;1.48;0.90;;;13.30;99.90;;;;;;5023986;28;20025;-84
2022/05/31 07:51:23;;;;;;;1.73;1.45;;;13.20;99.90;;;;;;5011295;28;20030;-79
2022/05/31 07:53:49;;;;;;;1.33;1.20;;;13.00;99.90;;;;;;5012734;28;20064;-78
2022/05/31 07:56:14;;;;;;;1.88;0.98;;;12.80;99.90;;;;;;5013304;28;20107;-78
2022/05/31 07:58:42;;;;;;;0.98;0.80;;;12.80;99.90;;;;;;5011929;28;20041;-79
2022/05/31 08:01:13;;;;;;;0.90;0.70;;;12.80;99.90;;;;;;5013144;28;20026;-79
2022/05/31 08:03:39;;;;;;;2.25;0.80;;;12.90;99.90;;;;;;5014830;28;20032;-78
2022/05/31 08:06:35;;;;;;;2.35;0.70;;;13.10;99.90;;;;;;5005775;28;20026;-77
2022/05/31 08:09:02;;;;;;;1.55;0.80;;;13.40;99.90;;;;;;4993957;28;20494;-79
2022/05/31 08:11:31;;;;;;;0.40;0.40;;;13.70;99.90;;;;;;5012519;28;20022;-79
2022/05/31 08:13:57;;;;;;;0.65;0.63;;;14.00;99.90;;;;;;5011923;28;20030;-78
2022/05/31 08:16:25;;;;;;;1.00;0.73;;;14.20;99.90;;;;;;5004036;28;20491;-78
2022/05/31 08:18:52;;;;;;;0.95;0.70;;;14.40;99.90;;;;;;5002062;28;20030;-78
2022/05/31 08:21:27;;;;;;;0.52;0.50;;;14.80;99.90;;;;;;5002193;28;20113;-78
2022/05/31 08:23:57;;;;;;;1.60;0.55;;;15.30;99.90;;;;;;5010244;28;20084;-79
2022/05/31 08:26:23;;;;;;;0.50;0.50;;;15.80;99.90;;;;;;5012473;28;20041;-77
2022/05/31 08:28:49;;;;;;;2.40;0.75;;;16.20;99.90;;;;;;5012449;28;20037;-78
2022/05/31 08:31:22;;;;;;;0.52;0.50;;;17.00;99.90;;;;;;5036814;22;20037;-80
2022/05/31 08:33:48;;;;;;;3.65;0.82;;;17.40;99.90;;;;;;5029872;28;20108;-80
2022/05/31 08:36:14;;;;;;;0.98;0.45;;;17.30;99.90;;;;;;5030917;28;20108;-80
2022/05/31 08:38:40;;;;;;;4.05;0.90;;;17.60;99.90;;;;;;5031473;28;20083;-76
2022/05/31 08:41:12;;;;;;;2.35;0.70;;;18.30;99.90;;;;;;5024837;28;20026;-76
2022/05/31 08:43:46;;;;;;;1.42;0.93;;;19.10;96.50;;;;;;5028139;28;20567;-75
2022/05/31 08:46:45;;;;;;;0.50;0.50;;;19.70;96.00;;;;;;5027107;28;20065;-75
2022/05/31 08:49:18;;;;;;;2.55;0.70;;;19.90;91.90;;;;;;5026704;28;20032;-80
2022/05/31 08:52:03;;;;;;;1.15;0.70;;;19.20;92.20;;;;;;5025213;28;20067;-79
2022/05/31 08:57:42;;;;;;;1.90;0.60;;;18.20;99.50;;;;;;5031747;28;20052;-78
2022/05/31 09:00:19;;;;;;;1.17;0.68;;;18.00;99.90;;;;;;5026602;28;20394;-79
2022/05/31 09:02:54;;;;;;;0.98;0.70;;;17.90;99.90;;;;;;5024091;28;20029;-78
2022/05/31 09:05:34;;;;;;;1.50;0.55;;;17.20;99.90;;;;;;5028921;28;20033;-78
2022/05/31 09:08:22;;;;;;;2.60;0.70;;;16.70;99.30;;;;;;5030759;28;20475;-84
2022/05/31 09:10:56;;;;;;;0.75;0.55;;;16.70;97.20;;;;;;5025186;28;20501;-77
2022/05/31 09:13:37;;;;;;;0.75;0.60;;;18.60;94.60;;;;;;5024224;28;20025;-79
2022/05/31 09:16:29;;;;;;;1.65;0.90;;;20.10;87.60;;;;;;5030026;28;20021;-78
2022/05/31 09:19:03;;;;;;;1.80;0.60;;;20.30;69.10;;;;;;5031124;28;20470;-76
2022/05/31 09:21:41;;;;;;;1.83;0.70;;;20.20;71.50;;;;;;5031009;28;20611;-77
2022/05/31 09:24:14;;;;;;;2.05;0.82;;;19.60;68.30;;;;;;5030978;28;20025;-77
2022/05/31 09:26:58;;;;;;;1.25;0.75;;;19.20;76.80;;;;;;5030835;28;20045;-77
2022/05/31 09:29:27;;;;;;;1.23;0.80;;;18.80;76.10;;;;;;5030866;28;20029;-77
2022/05/31 09:32:01;;;;;;;2.47;0.80;;;18.40;82.00;;;;;;5054900;22;20402;-85
2022/05/31 09:34:39;;;;;;;0.60;0.60;;;18.00;84.80;;;;;;5024554;28;20053;-82
2022/05/31 09:37:24;;;;;;;1.90;0.98;;;18.00;91.10;;;;;;5023505;28;20044;-81
2022/05/31 09:40:05;;;;;;;2.25;0.55;;;19.60;86.10;;;;;;5023654;28;20028;-83
2022/05/31 09:42:46;;;;;;;1.65;0.57;;;21.50;70.90;;;;;;5022251;28;20027;-83
2022/05/31 09:45:17;;;;;;;1.05;0.75;;;22.60;68.00;;;;;;5022837;28;20034;-80
2022/05/31 09:47:42;;;;;;;0.82;0.38;;;23.70;57.00;;;;;;5012375;28;20029;-80
2022/05/31 09:50:08;;;;;;;2.47;0.40;;;24.20;56.20;;;;;;5022416;28;20025;-81
2022/05/31 09:52:43;;;;;;;0.47;0.30;;;25.10;53.70;;;;;;5018183;28;20586;-80
2022/05/31 09:58:14;;;;;;;0.63;0.50;;;23.90;51.40;;;;;;5018522;28;20044;-87
2022/05/31 10:01:16;;;;;;;2.65;0.60;;;22.30;53.50;;;;;;5025043;28;20033;-89
2022/05/31 10:03:45;;;;;;;0.80;0.77;;;21.10;58.40;;;;;;5023268;28;20325;-85
2022/05/31 10:06:13;;;;;;;1.35;0.60;;;20.20;61.40;;;;;;5018284;28;20076;-88
2022/05/31 10:08:39;;;;;;;1.15;0.55;;;19.10;67.20;;;;;;5022694;28;20029;-81
2022/05/31 10:11:13;;;;;;;2.30;1.13;;;18.80;69.30;;;;;;5023244;28;20030;-90
2022/05/31 10:13:53;;;;;;;1.27;0.95;;;18.30;75.30;;;;;;5018743;28;20022;-86
2022/05/31 10:16:25;;;;;;;0.85;0.68;;;18.30;76.20;;;;;;5013180;28;20025;-77
2022/05/31 10:18:52;;;;;;;0.57;0.57;;;18.70;70.90;;;;;;5014456;28;20022;-78
2022/05/31 10:21:33;;;;;;;1.88;0.80;;;18.60;73.80;;;;;;5018246;28;20109;-80
2022/05/31 10:24:19;;;;;;;0.73;0.50;;;18.60;78.90;;;;;;5013840;28;20045;-83
2022/05/31 10:27:07;;;;;;;3.08;0.75;;;18.50;77.00;;;;;;5003203;28;20160;-85
2022/05/31 10:29:47;;;;;;;1.48;0.90;;;18.40;78.50;;;;;;5013926;28;20515;-86
2022/05/31 10:32:41;;;;;;;0.77;0.60;;;18.40;80.60;;;;;;5066783;23;20040;-80
2022/05/31 10:35:36;;;;;;;0.65;0.65;;;18.40;68.40;;;;;;5070975;28;20462;-80
2022/05/31 10:38:16;;;;;;;3.03;0.98;;;18.00;66.90;;;;;;5071609;28;20017;-79
2022/05/31 10:41:00;;;;;;;0.77;0.77;;;19.40;65.70;;;;;;5070314;28;20060;-83
2022/05/31 10:43:43;;;;;;;1.75;0.50;;;21.60;62.30;;;;;;5046064;28;20509;-86
2022/05/31 10:46:23;;;;;;;1.80;0.80;;;22.80;55.70;;;;;;5050539;28;20031;-80
2022/05/31 10:48:52;;;;;;;0.73;0.57;;;23.20;52.10;;;;;;5048071;28;20009;-82
2022/05/31 10:51:28;;;;;;;0.50;0.50;;;22.90;50.30;;;;;;5055369;28;20017;-81
2022/05/31 10:54:03;;;;;;;1.27;0.88;;;21.90;54.40;;;;;;5055327;28;20029;-81
2022/05/31 10:56:52;;;;;;;1.40;1.30;;;20.90;57.30;;;;;;5037346;28;20055;-78
2022/05/31 10:59:27;;;;;;;0.95;0.52;;;19.40;61.80;;;;;;5051387;28;20056;-82
2022/05/31 11:02:29;;;;;;;1.90;0.55;;;18.80;66.80;;;;;;5058058;28;20103;-79
2022/05/31 11:04:57;;;;;;;1.60;0.70;;;18.90;66.30;;;;;;4996219;28;20376;-84
2022/05/31 11:07:35;;;;;;;0.75;0.43;;;19.60;66.00;;;;;;5043648;28;20111;-76
2022/05/31 11:13:49;;;;;;;1.38;0.50;;;21.00;61.10;;;;;;5051157;28;20571;-77
2022/05/31 11:16:44;;;;;;;0.65;0.40;;;22.10;57.00;;;;;;5012291;28;20399;-76
2022/05/31 11:19:48;;;;;;;1.40;0.70;;;23.80;53.50;;;;;;5054142;28;20029;-76
2022/05/31 11:22:32;;;;;;;2.05;0.50;;;25.00;53.00;;;;;;5054485;28;20009;-77
2022/05/31 11:25:33;;;;;;;1.63;0.52;;;26.40;50.50;;;;;;5052087;28;20028;-76
2022/05/31 11:28:13;;;;;;;0.60;0.40;;;26.90;48.50;;;;;;5060796;28;20098;-76
2022/05/31 11:33:56;;;;;;;1.00;0.40;;;26.70;43.90;;;;;;5030932;28;20045;-81
2022/05/31 11:37:06;;;;;;;1.35;0.43;;;25.90;45.00;;;;;;5025681;28;20026;-84
2022/05/31 11:39:37;;;;;;;1.10;0.40;;;26.00;47.70;;;;;;5032727;28;20028;-83
2022/05/31 11:42:15;;;;;;;;;;;24.20;49.00;;;;;;5032842;28;20025;-87
2022/05/31 11:44:57;;;;;;;0.35;0.35;;;22.80;50.60;;;;;;5020168;28;19956;-86
2022/05/31 11:47:44;;;;;;;1.35;0.60;;;21.10;54.60;;;;;;5028510;28;20049;-85
2022/05/31 11:50:32;;;;;;;1.05;0.60;;;20.30;57.60;;;;;;5034856;28;20018;-89
2022/05/31 11:53:18;;;;;;;1.65;0.52;;;20.30;60.40;;;;;;5029849;28;20100;-84
2022/05/31 11:55:57;;;;;;;0.30;0.30;;;20.50;59.20;;;;;;5041830;28;20048;-90
2022/05/31 11:58:49;;;;;;;0.95;0.70;;;21.50;55.40;;;;;;5015972;28;20029;-88
2022/05/31 12:01:38;;;;;;;0.40;0.40;;;21.50;57.30;;;;;;5041800;28;20033;-90
2022/05/31 12:04:25;;;;;;;1.92;0.50;;;23.40;55.30;;;;;;5033490;28;20033;-87
2022/05/31 12:07:02;;;;;;;2.10;0.30;;;23.80;54.70;;;;;;5033762;28;20018;-89
2022/05/31 12:09:46;;;;;;;1.70;0.32;;;23.60;54.60;;;;;;5033558;28;20025;-88
2022/05/31 12:12:18;;;;;;;2.22;0.60;;;23.10;51.50;;;;;;5033856;28;20056;-87
2022/05/31 12:14:52;;;;;;;0.80;0.20;;;22.90;53.80;;;;;;5034405;28;20034;-86
2022/05/31 12:17:22;;;;;;;1.95;0.20;;;23.00;50.00;;;;;;5038159;28;20022;-87
2022/05/31 12:20:19;;;;;;;1.88;0.30;;;24.00;49.60;;;;;;5009542;28;20496;-91
2022/05/31 12:22:56;;;;;;;2.17;0.45;;;25.10;45.80;;;;;;5029058;28;20041;-89
2022/05/31 12:25:28;;;;;;;0.85;0.30;;;23.90;46.70;;;;;;5028016;28;20057;-88
2022/05/31 12:28:51;;;;;;;1.05;0.40;;;22.50;48.60;;;;;;5042010;28;20014;-90
2022/05/31 12:31:26;;;;;;;1.85;0.35;;;21.00;54.40;;;;;;4999291;22;20079;-82
2022/05/31 12:33:52;;;;;;;1.42;0.50;;;19.30;64.30;;;;;;5008756;28;20085;-82
2022/05/31 12:36:23;;;;;;;1.23;0.40;;;18.90;72.70;;;;;;5013325;28;20022;-85
2022/05/31 12:38:55;;;;;;;0.90;0.30;;;19.30;64.80;;;;;;5013041;28;20021;-83
2022/05/31 12:41:42;;;;;;;0.77;0.30;;;19.60;65.60;;;;;;5011542;28;20267;-82
2022/05/31 12:44:35;;;;;;;2.10;0.45;;;19.60;62.70;;;;;;5012060;28;20037;-82
2022/05/31 12:47:32;;;;;;;1.17;0.30;;;19.30;61.40;;;;;;5009755;28;20100;-85
2022/05/31 12:50:02;;;;;;;3.25;0.38;;;18.80;63.40;;;;;;5012668;28;20029;-87
2022/05/31 12:55:33;;;;;;;1.08;0.40;;;17.90;71.50;;;;;;5012835;28;20030;-84
2022/05/31 12:58:29;;;;;;;0.52;0.40;;;17.60;71.60;;;;;;5006219;28;20493;-85
2022/05/31 13:01:06;;;;;;;0.50;0.50;;;18.40;69.80;;;;;;5007632;28;20026;-83
2022/05/31 13:03:32;;;;;;;1.63;0.40;;;19.80;67.30;;;;;;5007354;28;20034;-82
2022/05/31 13:06:04;;;;;;;0.40;0.30;;;19.80;65.10;;;;;;5011140;28;20033;-83
2022/05/31 13:08:48;;;;;;;2.20;0.68;;;19.50;66.80;;;;;;5010794;28;20014;-84
2022/05/31 13:20:20;;;;;;;0.65;0.50;;;23.70;53.20;;;;;;5009477;28;20040;-83
2022/05/31 13:23:06;;;;;;;2.35;0.40;;;21.50;58.30;;;;;;5006204;28;20026;-84
2022/05/31 13:25:38;;;;;;;0.90;0.50;;;21.60;58.50;;;;;;5009460;28;20030;-85
2022/05/31 13:28:03;;;;;;;;;;;21.40;60.40;;;;;;5010869;28;20022;-85
2022/05/31 13:30:41;;;;;;;0.73;0.30;;;22.50;57.70;;;;;;5011845;28;19905;-83
2022/05/31 13:33:26;;;;;;;2.53;0.60;;;24.50;53.30;;;;;;5044733;22;20061;-86
2022/05/31 13:35:57;;;;;;;0.57;0.30;;;26.20;50.60;;;;;;5012972;28;20022;-87
2022/05/31 13:38:26;;;;;;;1.95;0.50;;;25.20;49.70;;;;;;5031990;28;20100;-85
2022/05/31 13:40:58;;;;;;;2.97;0.68;;;25.70;51.30;;;;;;5030934;28;20017;-85
2022/05/31 13:43:29;;;;;;;1.75;0.32;;;26.40;45.80;;;;;;5031807;28;20470;-86
2022/05/31 13:46:06;;;;;;;0.50;0.30;;;26.90;48.10;;;;;;5031648;28;20540;-82
2022/05/31 13:48:38;;;;;;;2.28;0.40;;;27.30;44.40;;;;;;5032984;28;20087;-87
2022/05/31 13:51:07;;;;;;;1.85;0.30;;;27.60;44.20;;;;;;5032431;28;20037;-84
2022/05/31 13:53:42;;;;;;;1.27;0.73;;;27.30;45.10;;;;;;5025453;28;20386;-89
2022/05/31 13:56:15;;;;;;;2.67;0.40;;;26.30;48.20;;;;;;5020541;28;20014;-89